National Weather Service United States Department of Commerce


592
FTPA31 PHFO 221740
TAFSTU
TAF
NSTU 221740Z 2218/2318 VRB04KT P6SM VCSH SCT020 SCT040 BKN250=


000
SAZS31 NSTU 222055
MTRPPG
METAR NSTU 222052Z 35009KT 12SM FEW018 31/25 A2975 RMK SLP073 8/100
T03080248 52002=

METAR Formatted Surface Weather Observation  Issued: 01/22/2019 09:55:21 AM SST

NSTU Observation History

 

Significant Weather Charts